Time;durP1;ratioP1;P1;durP2;ratioP2;P2;SDS_P1;SDS_P2;PMS_P1;PMS_P2;Temp;Humidity;BMP_temperature;BMP_pressure;BME280_temperature;BME280_humidity;BME280_pressure;Samples;Min_cycle;Max_cycle;Signal;HPM_P1;HPM_P2
2023/01/19 00:07:16;;;;;;;2.83;0.40;;;;;;;;;;20928996;28;20091;-67
2023/01/19 00:17:18;;;;;;;0.60;0.20;;;;;;;;;;20926788;28;20497;-66
2023/01/19 00:27:20;;;;;;;2.33;0.50;;;;;;;;;;20926278;28;20048;-66
2023/01/19 00:37:22;;;;;;;1.10;0.30;;;;;;;;;;20924686;28;20057;-68
2023/01/19 00:47:24;;;;;;;1.98;0.30;;;;;;;;;;20924388;28;20048;-68
2023/01/19 00:57:26;;;;;;;1.75;0.40;;;;;;;;;;20924504;28;20087;-67
2023/01/19 01:07:28;;;;;;;4.05;0.60;;;;;;;;;;20923228;28;20451;-66
2023/01/19 01:17:31;;;;;;;2.05;0.52;;;;;;;;;;20922813;28;20048;-66
2023/01/19 01:27:33;;;;;;;0.60;0.20;;;;;;;;;;20921653;28;20053;-68
2023/01/19 01:37:35;;;;;;;1.75;0.20;;;;;;;;;;20920062;28;20057;-66
2023/01/19 01:47:42;;;;;;;1.33;0.30;;;;;;;;;;20920822;28;20518;-68
2023/01/19 01:57:47;;;;;;;1.42;0.20;;;;;;;;;;20918625;28;20049;-66
2023/01/19 02:18:15;;;;;;;0.32;0.08;;;;;;;;;;20916827;28;20135;-67
2023/01/19 02:28:18;;;;;;;5.28;0.40;;;;;;;;;;20916128;28;20084;-64
2023/01/19 02:38:27;;;;;;;1.45;0.30;;;;;;;;;;20915710;28;20563;-67
2023/01/19 02:48:45;;;;;;;1.98;0.30;;;;;;;;;;20915098;28;20049;-67
2023/01/19 02:59:06;;;;;;;0.57;0.28;;;;;;;;;;20914191;28;20083;-67
2023/01/19 03:09:28;;;;;;;0.40;0.13;;;;;;;;;;20913368;28;20087;-64
2023/01/19 03:19:41;;;;;;;0.95;0.20;;;;;;;;;;20912864;28;20049;-64
2023/01/19 03:29:50;;;;;;;1.08;0.25;;;;;;;;;;20914154;28;20081;-66
2023/01/19 03:39:54;;;;;;;0.47;0.15;;;;;;;;;;20926919;28;20063;-67
2023/01/19 03:49:58;;;;;;;0.68;0.20;;;;;;;;;;20928667;28;20055;-66
2023/01/19 04:00:00;;;;;;;0.52;0.10;;;;;;;;;;20929145;28;20053;-68
2023/01/19 04:10:04;;;;;;;0.88;0.20;;;;;;;;;;20926887;28;20090;-67
2023/01/19 04:20:07;;;;;;;4.63;1.85;;;;;;;;;;20926206;28;20051;-67
2023/01/19 04:30:12;;;;;;;2.47;0.22;;;;;;;;;;20926184;28;20408;-66
2023/01/19 04:40:14;;;;;;;1.25;0.20;;;;;;;;;;20924952;28;20092;-66
2023/01/19 04:50:27;;;;;;;4.88;0.32;;;;;;;;;;20927196;28;20045;-64
2023/01/19 05:00:30;;;;;;;0.68;0.10;;;;;;;;;;20927551;28;20048;-65
2023/01/19 05:10:32;;;;;;;3.03;0.30;;;;;;;;;;20923507;28;20127;-63
2023/01/19 05:20:35;;;;;;;0.95;0.30;;;;;;;;;;20921640;28;20049;-63
2023/01/19 05:30:37;;;;;;;1.05;0.40;;;;;;;;;;20921609;28;20045;-65
2023/01/19 05:40:40;;;;;;;1.38;0.50;;;;;;;;;;20919826;28;20057;-64
2023/01/19 05:50:42;;;;;;;1.20;0.25;;;;;;;;;;20920292;28;20053;-68
2023/01/19 06:00:44;;;;;;;2.65;0.40;;;;;;;;;;20917326;28;20045;-68
2023/01/19 06:10:46;;;;;;;3.08;0.40;;;;;;;;;;20918100;28;20405;-68
2023/01/19 06:20:49;;;;;;;1.05;0.60;;;;;;;;;;20917228;28;20064;-68
2023/01/19 06:30:51;;;;;;;1.58;0.20;;;;;;;;;;20917487;28;20045;-66
2023/01/19 06:41:01;;;;;;;2.03;0.40;;;;;;;;;;20915109;28;20053;-68
2023/01/19 06:51:04;;;;;;;1.10;0.30;;;;;;;;;;20914572;28;20473;-66
2023/01/19 07:01:09;;;;;;;1.17;0.38;;;;;;;;;;20914001;28;20053;-67
2023/01/19 07:11:13;;;;;;;1.00;0.38;;;;;;;;;;20913097;28;20045;-69
2023/01/19 07:21:15;;;;;;;3.55;0.40;;;;;;;;;;20912303;28;20049;-65
2023/01/19 07:31:18;;;;;;;2.90;0.65;;;;;;;;;;20912362;28;20133;-67
2023/01/19 07:41:19;;;;;;;2.20;0.40;;;;;;;;;;20911694;28;20130;-64
2023/01/19 07:51:21;;;;;;;2.35;0.40;;;;;;;;;;20911236;28;20471;-63
2023/01/19 08:01:23;;;;;;;2.05;0.30;;;;;;;;;;20911128;28;20063;-63
2023/01/19 08:11:26;;;;;;;3.38;0.40;;;;;;;;;;20911179;28;20048;-63
2023/01/19 08:21:28;;;;;;;1.33;0.40;;;;;;;;;;20918205;28;20370;-65
2023/01/19 08:31:31;;;;;;;2.28;0.40;;;;;;;;;;20925485;28;20060;-64
2023/01/19 08:41:33;;;;;;;1.65;0.30;;;;;;;;;;20924471;28;20550;-63
2023/01/19 08:51:35;;;;;;;3.30;0.40;;;;;;;;;;20924677;28;20128;-65
2023/01/19 09:01:38;;;;;;;2.95;0.50;;;;;;;;;;20924470;28;20075;-62
2023/01/19 09:11:41;;;;;;;3.55;0.40;;;;;;;;;;20922388;28;20049;-67
2023/01/19 09:21:43;;;;;;;2.13;0.30;;;;;;;;;;20921395;28;20103;-67
2023/01/19 09:31:45;;;;;;;0.98;0.32;;;;;;;;;;20920434;28;20049;-67
2023/01/19 09:41:55;;;;;;;5.30;0.55;;;;;;;;;;20919783;28;20122;-65
2023/01/19 09:51:57;;;;;;;;;;;;;;;;;;20920355;28;20546;-66
2023/01/19 10:02:11;;;;;;;5.30;0.60;;;;;;;;;;20918382;28;19932;-67
2023/01/19 10:12:40;;;;;;;1.27;0.30;;;;;;;;;;20917793;28;20064;-64
2023/01/19 10:22:43;;;;;;;2.58;0.52;;;;;;;;;;20907279;28;20088;-63
2023/01/19 10:32:45;;;;;;;4.22;0.77;;;;;;;;;;20915885;28;20041;-67
2023/01/19 10:42:57;;;;;;;3.40;0.43;;;;;;;;;;20915607;28;20464;-66
2023/01/19 10:53:02;;;;;;;3.28;0.50;;;;;;;;;;20997990;28;20055;-63
2023/01/19 11:03:22;;;;;;;1.10;0.35;;;;;;;;;;20997476;28;20056;-64
2023/01/19 11:13:24;;;;;;;2.30;0.40;;;;;;;;;;20997235;28;20056;-66
2023/01/19 11:23:28;;;;;;;2.55;0.50;;;;;;;;;;20996530;28;20496;-63
2023/01/19 11:33:35;;;;;;;2.38;0.30;;;;;;;;;;20996485;28;20053;-63
2023/01/19 11:43:36;;;;;;;1.92;0.32;;;;;;;;;;20994098;28;20143;-63
2023/01/19 11:53:38;;;;;;;1.55;0.50;;;;;;;;;;20997860;28;20136;-63
2023/01/19 12:03:41;;;;;;;3.42;0.70;;;;;;;;;;21011278;28;20451;-63
2023/01/19 12:13:44;;;;;;;4.60;0.90;;;;;;;;;;21010539;28;20049;-63
2023/01/19 12:23:49;;;;;;;4.28;0.88;;;;;;;;;;21008658;28;20052;-63
2023/01/19 12:33:51;;;;;;;3.78;0.80;;;;;;;;;;21008728;28;20052;-63
2023/01/19 12:44:15;;;;;;;1.40;0.50;;;;;;;;;;21006386;28;20087;-64
2023/01/19 12:54:20;;;;;;;1.75;0.70;;;;;;;;;;21006886;28;20080;-63
2023/01/19 13:04:33;;;;;;;1.85;0.47;;;;;;;;;;21004835;28;20083;-64
2023/01/19 13:14:36;;;;;;;2.15;0.68;;;;;;;;;;21005361;28;20045;-62
2023/01/19 13:24:57;;;;;;;3.17;0.80;;;;;;;;;;21003959;28;20647;-62
2023/01/19 13:35:00;;;;;;;2.47;0.75;;;;;;;;;;21004244;28;20127;-62
2023/01/19 13:45:15;;;;;;;2.45;1.00;;;;;;;;;;21002851;28;20060;-63
2023/01/19 13:55:19;;;;;;;3.90;0.90;;;;;;;;;;21001853;28;20044;-64
2023/01/19 14:05:24;;;;;;;2.42;0.70;;;;;;;;;;21002294;28;20190;-63
2023/01/19 14:15:26;;;;;;;5.75;2.30;;;;;;;;;;21000955;28;20137;-65
2023/01/19 14:25:28;;;;;;;3.72;1.05;;;;;;;;;;20999024;28;20052;-62
2023/01/19 14:35:30;;;;;;;2.58;0.80;;;;;;;;;;20998222;28;20135;-62
2023/01/19 14:45:40;;;;;;;2.45;0.82;;;;;;;;;;20998485;28;20048;-64
2023/01/19 14:55:46;;;;;;;2.22;1.00;;;;;;;;;;20998020;28;20090;-63
2023/01/19 15:05:49;;;;;;;4.03;1.02;;;;;;;;;;20997082;28;20436;-63
2023/01/19 15:15:51;;;;;;;3.08;0.80;;;;;;;;;;20996943;28;20528;-62
2023/01/19 15:25:58;;;;;;;2.75;1.00;;;;;;;;;;20995469;28;20060;-61
2023/01/19 15:36:00;;;;;;;10.65;1.92;;;;;;;;;;20995657;28;20060;-62
2023/01/19 15:46:02;;;;;;;5.60;0.93;;;;;;;;;;20995668;28;20131;-62
2023/01/19 15:56:04;;;;;;;7.75;2.35;;;;;;;;;;20995321;28;20040;-62
2023/01/19 16:06:06;;;;;;;3.90;0.95;;;;;;;;;;20994732;28;20052;-61
2023/01/19 16:16:14;;;;;;;4.32;0.82;;;;;;;;;;20994657;28;20413;-62
2023/01/19 16:26:22;;;;;;;10.48;2.92;;;;;;;;;;20993602;28;20053;-63
2023/01/19 16:36:28;;;;;;;3.72;0.90;;;;;;;;;;20994296;28;20052;-63
2023/01/19 16:46:33;;;;;;;3.58;1.10;;;;;;;;;;21008126;28;20110;-63
2023/01/19 16:56:35;;;;;;;7.25;1.45;;;;;;;;;;21009050;28;20090;-62
2023/01/19 17:06:38;;;;;;;4.57;1.35;;;;;;;;;;21007459;28;20095;-61
2023/01/19 17:16:40;;;;;;;4.22;1.02;;;;;;;;;;21005787;28;20155;-62
2023/01/19 17:26:47;;;;;;;3.28;1.30;;;;;;;;;;21005151;28;20503;-63
2023/01/19 17:37:01;;;;;;;4.25;1.02;;;;;;;;;;21004142;28;20389;-62
2023/01/19 17:47:05;;;;;;;3.57;0.80;;;;;;;;;;21004243;28;20396;-61
2023/01/19 17:57:07;;;;;;;4.30;1.05;;;;;;;;;;21001095;28;20071;-62
2023/01/19 18:07:09;;;;;;;2.95;1.35;;;;;;;;;;21001425;28;20048;-62
2023/01/19 18:17:11;;;;;;;5.95;1.48;;;;;;;;;;21000218;28;20048;-63
2023/01/19 18:27:15;;;;;;;2.92;0.70;;;;;;;;;;20999139;28;20088;-63
2023/01/19 18:37:17;;;;;;;6.15;1.15;;;;;;;;;;20998898;28;20159;-62
2023/01/19 18:47:18;;;;;;;4.45;1.73;;;;;;;;;;20998912;28;20554;-61
2023/01/19 18:57:21;;;;;;;5.60;1.17;;;;;;;;;;20997703;28;20045;-64
2023/01/19 19:07:23;;;;;;;3.15;0.95;;;;;;;;;;20996100;28;20056;-62
2023/01/19 19:17:25;;;;;;;5.72;1.63;;;;;;;;;;20996702;28;20082;-63
2023/01/19 19:27:27;;;;;;;2.38;0.60;;;;;;;;;;20996674;28;20537;-62
2023/01/19 19:37:29;;;;;;;2.97;0.93;;;;;;;;;;20995876;28;20040;-67
2023/01/19 19:47:32;;;;;;;2.13;0.68;;;;;;;;;;20995553;28;20051;-67
2023/01/19 19:57:34;;;;;;;3.75;1.10;;;;;;;;;;20997164;28;20087;-67
2023/01/19 20:07:37;;;;;;;3.45;0.80;;;;;;;;;;20994079;28;20497;-62
2023/01/19 20:17:39;;;;;;;2.55;0.93;;;;;;;;;;21002901;28;20048;-62
2023/01/19 20:27:41;;;;;;;3.38;1.17;;;;;;;;;;21009598;28;20104;-62
2023/01/19 20:37:44;;;;;;;2.20;0.52;;;;;;;;;;21007958;28;20496;-63
2023/01/19 20:47:46;;;;;;;4.40;0.77;;;;;;;;;;21008007;28;20070;-62
2023/01/19 20:57:48;;;;;;;1.85;0.68;;;;;;;;;;21008050;28;20431;-62
2023/01/19 21:07:51;;;;;;;2.63;0.40;;;;;;;;;;21006239;28;20222;-63
2023/01/19 21:17:53;;;;;;;2.47;0.50;;;;;;;;;;21005634;28;20044;-63
2023/01/19 21:27:55;;;;;;;2.28;0.55;;;;;;;;;;21004095;28;20412;-63
2023/01/19 21:37:57;;;;;;;1.85;0.60;;;;;;;;;;21002455;28;20501;-62
2023/01/19 21:48:00;;;;;;;2.20;0.57;;;;;;;;;;21004572;28;20056;-63
2023/01/19 21:58:03;;;;;;;0.85;0.40;;;;;;;;;;21004049;28;20052;-62
2023/01/19 22:08:05;;;;;;;1.90;0.63;;;;;;;;;;21003253;28;20055;-63
2023/01/19 22:18:07;;;;;;;1.48;0.52;;;;;;;;;;21002230;28;20405;-63
2023/01/19 22:28:09;;;;;;;2.08;0.60;;;;;;;;;;20999893;28;20056;-61
2023/01/19 22:38:12;;;;;;;1.98;0.55;;;;;;;;;;20998960;28;20447;-62
2023/01/19 22:48:15;;;;;;;2.63;0.60;;;;;;;;;;20998740;28;20053;-61
2023/01/19 22:58:18;;;;;;;0.70;0.30;;;;;;;;;;20997741;28;20044;-62
2023/01/19 23:08:20;;;;;;;1.25;0.60;;;;;;;;;;20997017;28;20083;-62
2023/01/19 23:18:23;;;;;;;1.63;0.30;;;;;;;;;;20997497;28;20080;-62
2023/01/19 23:28:25;;;;;;;1.50;0.30;;;;;;;;;;20996731;28;20489;-62
2023/01/19 23:38:27;;;;;;;2.17;0.60;;;;;;;;;;20996353;28;20040;-64
2023/01/19 23:48:30;;;;;;;2.47;0.70;;;;;;;;;;20998184;28;20079;-65
2023/01/19 23:58:31;;;;;;;1.25;0.38;;;;;;;;;;21012855;28;20416;-61
